Riverton, Kansas
Current Conditions -  °F | °C
As of 11:53 AM on Friday 24 Oct 2014 (Local Time) from KJLN Reporting Station
Clear Clear  
Wind Chill: 69°   Ceiling: Unl
Heat Index: 69°   Visibility: 10mi
Dew Point: 57°   Wind: 14mph
Humidity: 65%   Direction: 220°SW
Pressure: 30.11"   Gusts: NA
Location:  37.08°N, 94.7°W
Report Text: KJLN 241653Z 22012KT 10SM CLR 21/14 A3011 RMK AO2 SLP192 T02060139
Loading
Personal Weather Stations






























Interactive Weather Map
Tropical Storm Tracking
New forecast layout! Learn more

10-Day Weather Forecast

Advertisements
Track Severe Weather on mobile